createdAt,value
2022-09-09T00:02:20.812Z,12.20
2022-09-09T00:05:02.695Z,12.00
2022-09-09T00:07:44.017Z,11.80
2022-09-09T00:10:29.716Z,11.80
2022-09-09T00:13:05.538Z,11.80
2022-09-09T00:15:37.512Z,11.80
2022-09-09T00:18:18.506Z,11.90
2022-09-09T00:20:52.848Z,11.90
2022-09-09T00:23:29.313Z,11.90
2022-09-09T00:26:09.307Z,11.90
2022-09-09T00:28:42.688Z,11.90
2022-09-09T00:31:26.306Z,11.80
2022-09-09T00:33:54.602Z,11.80
2022-09-09T00:36:26.229Z,11.80
2022-09-09T00:38:57.939Z,11.80
2022-09-09T00:41:33.378Z,11.80
2022-09-09T00:44:07.908Z,11.80
2022-09-09T00:46:46.357Z,11.80
2022-09-09T00:49:33.787Z,11.80
2022-09-09T00:52:09.224Z,11.80
2022-09-09T00:54:50.769Z,11.70
2022-09-09T00:57:17.447Z,11.50
2022-09-09T00:59:52.173Z,11.50
2022-09-09T01:02:30.702Z,11.50
2022-09-09T01:05:14.784Z,11.50
2022-09-09T01:07:48.224Z,11.50
2022-09-09T01:10:42.586Z,11.60
2022-09-09T01:13:17.893Z,11.60
2022-09-09T01:15:45.502Z,11.60
2022-09-09T01:18:17.589Z,11.50
2022-09-09T01:21:19.363Z,11.50
2022-09-09T01:24:27.940Z,11.40
2022-09-09T01:26:59.999Z,11.40
2022-09-09T01:29:27.143Z,11.40
2022-09-09T01:31:58.055Z,11.40
2022-09-09T01:34:28.298Z,11.30
2022-09-09T01:37:01.126Z,11.30
2022-09-09T01:39:28.740Z,11.20
2022-09-09T01:41:57.103Z,11.10
2022-09-09T01:44:25.125Z,11.20
2022-09-09T01:46:51.983Z,11.20
2022-09-09T01:49:19.465Z,11.20
2022-09-09T01:51:50.658Z,11.10
2022-09-09T01:54:18.054Z,11.10
2022-09-09T01:56:55.490Z,11.00
2022-09-09T02:00:02.150Z,11.10
2022-09-09T02:02:47.788Z,11.00
2022-09-09T02:05:23.029Z,11.00
2022-09-09T02:07:53.311Z,10.90
2022-09-09T02:10:29.845Z,10.90
2022-09-09T02:13:20.674Z,10.80
2022-09-09T02:15:57.087Z,10.80
2022-09-09T02:18:51.228Z,10.80
2022-09-09T02:21:18.978Z,10.80
2022-09-09T02:23:48.915Z,10.90
2022-09-09T02:26:22.398Z,10.90
2022-09-09T02:28:50.433Z,10.90
2022-09-09T02:31:23.026Z,10.90
2022-09-09T02:33:57.332Z,10.80
2022-09-09T02:36:27.387Z,10.80
2022-09-09T02:38:55.418Z,10.80
2022-09-09T02:41:33.682Z,10.80
2022-09-09T02:44:01.419Z,10.70
2022-09-09T02:46:43.309Z,10.70
2022-09-09T02:49:12.035Z,10.60
2022-09-09T02:52:02.094Z,10.70
2022-09-09T02:54:33.012Z,10.60
2022-09-09T02:57:21.775Z,10.50
2022-09-09T02:59:49.493Z,10.50
2022-09-09T03:02:16.639Z,10.40
2022-09-09T03:04:45.544Z,10.40
2022-09-09T03:07:13.092Z,10.40
2022-09-09T03:09:39.914Z,10.40
2022-09-09T03:12:06.773Z,10.40
2022-09-09T03:14:33.474Z,10.40
2022-09-09T03:17:01.922Z,10.50
2022-09-09T03:19:29.143Z,10.40
2022-09-09T03:21:55.841Z,10.40
2022-09-09T03:24:23.711Z,10.40
2022-09-09T03:26:51.487Z,10.40
2022-09-09T03:29:19.461Z,10.40
2022-09-09T03:31:46.396Z,10.30
2022-09-09T03:34:14.596Z,10.30
2022-09-09T03:36:42.089Z,10.30
2022-09-09T03:39:08.884Z,10.20
2022-09-09T03:41:35.630Z,10.10
2022-09-09T03:44:02.462Z,10.10
2022-09-09T03:46:29.363Z,10.10
2022-09-09T03:48:56.147Z,10.10
2022-09-09T03:51:23.025Z,10.20
2022-09-09T03:53:50.026Z,10.20
2022-09-09T03:56:16.752Z,10.30
2022-09-09T03:58:43.546Z,10.30
2022-09-09T04:01:15.824Z,10.30
2022-09-09T04:03:43.319Z,10.30
2022-09-09T04:06:14.308Z,10.30
2022-09-09T04:08:42.677Z,10.30
2022-09-09T04:11:09.591Z,10.40
2022-09-09T04:13:41.195Z,10.40
2022-09-09T04:16:09.268Z,10.30
2022-09-09T04:18:36.109Z,10.30
2022-09-09T04:21:04.577Z,10.30
2022-09-09T04:23:31.660Z,10.30
2022-09-09T04:25:59.905Z,10.30
2022-09-09T04:28:29.269Z,10.30
2022-09-09T04:30:57.805Z,10.30
2022-09-09T04:33:27.575Z,10.30
2022-09-09T04:35:55.955Z,10.20
2022-09-09T04:38:23.953Z,10.20
2022-09-09T04:40:52.765Z,10.20
2022-09-09T04:43:19.943Z,10.20
2022-09-09T04:45:49.487Z,10.20
2022-09-09T04:48:16.418Z,10.30
2022-09-09T04:50:43.081Z,10.30
2022-09-09T04:53:10.108Z,10.40
2022-09-09T04:55:36.902Z,10.40
2022-09-09T04:58:07.967Z,10.40
2022-09-09T05:00:36.796Z,10.50
2022-09-09T05:03:09.794Z,10.50
2022-09-09T05:05:36.977Z,10.60
2022-09-09T05:08:07.955Z,10.60
2022-09-09T05:10:35.548Z,10.60
2022-09-09T05:13:02.260Z,10.70
2022-09-09T05:15:29.594Z,10.80
2022-09-09T05:18:01.508Z,10.80
2022-09-09T05:20:29.248Z,10.90
2022-09-09T05:22:57.322Z,11.00
2022-09-09T05:25:26.934Z,11.20
2022-09-09T05:27:54.741Z,11.30
2022-09-09T05:30:23.146Z,11.40
2022-09-09T05:32:49.964Z,11.50
2022-09-09T05:35:17.281Z,11.60
2022-09-09T05:37:43.975Z,11.80
2022-09-09T05:40:11.863Z,11.90
2022-09-09T05:42:39.930Z,11.90
2022-09-09T05:45:08.701Z,11.90
2022-09-09T05:47:36.494Z,11.90
2022-09-09T05:50:03.395Z,12.00
2022-09-09T05:52:31.050Z,12.10
2022-09-09T05:54:58.021Z,12.00
2022-09-09T05:57:24.750Z,12.10
2022-09-09T05:59:51.486Z,12.10
2022-09-09T06:02:18.321Z,12.10
2022-09-09T06:04:45.106Z,12.10
2022-09-09T06:07:11.830Z,12.10
2022-09-09T06:09:38.506Z,12.20
2022-09-09T06:12:05.509Z,12.20
2022-09-09T06:14:32.209Z,12.30
2022-09-09T06:16:58.904Z,12.40
2022-09-09T06:19:27.363Z,12.50
2022-09-09T06:21:54.084Z,12.50
2022-09-09T06:24:21.009Z,12.80
2022-09-09T06:26:47.774Z,12.80
2022-09-09T06:29:14.472Z,13.10
2022-09-09T06:31:42.210Z,13.30
2022-09-09T06:34:10.245Z,13.40
2022-09-09T06:36:39.449Z,13.40
2022-09-09T06:39:12.104Z,13.50
2022-09-09T06:41:40.690Z,13.60
2022-09-09T06:44:07.583Z,13.80
2022-09-09T06:46:34.662Z,13.90
2022-09-09T06:49:01.730Z,14.00
2022-09-09T06:51:32.010Z,14.10
2022-09-09T06:54:03.115Z,14.20
2022-09-09T06:56:34.005Z,14.10
2022-09-09T06:59:04.911Z,14.30
2022-09-09T07:01:37.949Z,14.30
2022-09-09T07:04:08.347Z,14.40
2022-09-09T07:06:37.458Z,14.50
2022-09-09T07:09:07.202Z,14.60
2022-09-09T07:11:38.526Z,14.70
2022-09-09T07:14:05.273Z,14.80
2022-09-09T07:16:35.018Z,15.10
2022-09-09T07:19:03.414Z,15.20
2022-09-09T07:21:31.671Z,15.40
2022-09-09T07:23:59.810Z,15.80
2022-09-09T07:26:30.163Z,16.10
2022-09-09T07:28:58.053Z,16.30
2022-09-09T07:31:27.950Z,16.70
2022-09-09T07:33:55.013Z,16.80
2022-09-09T07:36:24.990Z,17.00
2022-09-09T07:38:54.669Z,17.30
2022-09-09T07:41:44.689Z,17.40
2022-09-09T07:44:14.158Z,17.70
2022-09-09T07:46:42.260Z,17.80
2022-09-09T07:49:09.942Z,18.00
2022-09-09T07:51:42.793Z,18.10
2022-09-09T07:54:12.157Z,17.90
2022-09-09T07:56:40.485Z,17.80
2022-09-09T07:59:08.007Z,17.70
2022-09-09T08:01:40.684Z,17.60
2022-09-09T08:04:10.743Z,17.50
2022-09-09T08:06:40.273Z,17.60
2022-09-09T08:09:08.031Z,17.50
2022-09-09T08:11:39.254Z,17.40
2022-09-09T08:14:09.102Z,17.40
2022-09-09T08:16:40.199Z,17.30
2022-09-09T08:19:08.257Z,17.30
2022-09-09T08:21:37.655Z,17.20
2022-09-09T08:24:06.123Z,17.10
2022-09-09T08:26:39.280Z,17.10
2022-09-09T08:29:08.094Z,17.10
2022-09-09T08:31:47.411Z,17.00
2022-09-09T08:34:14.618Z,16.90
2022-09-09T08:36:44.405Z,16.80
2022-09-09T08:39:13.317Z,16.80
2022-09-09T08:42:26.075Z,16.70
2022-09-09T08:45:20.221Z,16.70
2022-09-09T08:48:03.335Z,16.70
2022-09-09T08:50:36.261Z,16.60
2022-09-09T08:53:09.380Z,16.50
2022-09-09T08:55:58.335Z,16.40
2022-09-09T08:58:27.197Z,16.40
2022-09-09T09:01:15.148Z,16.40
2022-09-09T09:03:48.448Z,16.40
2022-09-09T09:06:25.327Z,16.50
2022-09-09T09:09:22.142Z,16.80
2022-09-09T09:11:54.313Z,16.80
2022-09-09T09:14:31.258Z,16.80
2022-09-09T09:17:07.404Z,16.80
2022-09-09T09:19:36.680Z,16.90
2022-09-09T09:22:08.379Z,17.00
2022-09-09T09:24:53.923Z,17.10
2022-09-09T09:27:34.229Z,17.10
2022-09-09T09:30:22.877Z,17.10
2022-09-09T09:32:59.434Z,17.20
2022-09-09T09:35:26.200Z,17.30
2022-09-09T09:40:59.331Z,17.60
2022-09-09T09:43:29.576Z,17.90
2022-09-09T09:46:16.622Z,18.00
2022-09-09T09:48:44.560Z,18.00
2022-09-09T09:51:18.169Z,18.30
2022-09-09T09:53:45.235Z,18.50
2022-09-09T09:56:16.878Z,18.70
2022-09-09T09:58:47.112Z,18.90
2022-09-09T10:01:32.342Z,19.00
2022-09-09T10:04:02.571Z,19.30
2022-09-09T10:06:39.108Z,19.80
2022-09-09T10:09:21.617Z,19.80
2022-09-09T10:12:20.195Z,19.90
2022-09-09T10:14:53.147Z,19.90
2022-09-09T10:17:28.239Z,20.00
2022-09-09T10:20:33.234Z,19.90
2022-09-09T10:23:26.213Z,19.90
2022-09-09T10:26:14.527Z,20.10
2022-09-09T10:29:03.348Z,20.00
2022-09-09T10:32:05.014Z,20.00
2022-09-09T10:34:46.573Z,20.20
2022-09-09T10:37:47.581Z,20.10
2022-09-09T10:40:30.934Z,20.30
2022-09-09T10:43:09.310Z,20.30
2022-09-09T10:46:01.242Z,20.50
2022-09-09T10:49:11.043Z,20.80
2022-09-09T10:51:43.618Z,20.60
2022-09-09T10:54:11.293Z,20.80
2022-09-09T10:56:40.710Z,20.90
2022-09-09T10:59:19.322Z,21.30
2022-09-09T11:01:50.336Z,21.40
2022-09-09T11:04:35.243Z,21.40
2022-09-09T11:07:11.901Z,21.30
2022-09-09T11:09:46.115Z,21.10
2022-09-09T11:12:20.466Z,20.90
2022-09-09T11:14:53.184Z,21.10
2022-09-09T11:17:28.346Z,21.20
2022-09-09T11:19:56.006Z,21.80
2022-09-09T11:22:28.614Z,22.20
2022-09-09T11:25:17.348Z,22.20
2022-09-09T11:27:53.095Z,22.00
2022-09-09T11:30:53.682Z,21.90
2022-09-09T11:33:33.154Z,21.80
2022-09-09T11:36:37.746Z,22.20
2022-09-09T11:39:25.373Z,22.50
2022-09-09T11:41:52.562Z,22.50
2022-09-09T11:44:31.133Z,22.70
2022-09-09T11:46:57.959Z,22.30
2022-09-09T11:49:42.823Z,22.50
2022-09-09T11:52:42.831Z,22.30
2022-09-09T11:55:13.146Z,22.40
2022-09-09T11:57:40.634Z,22.60
2022-09-09T12:00:08.182Z,22.90
2022-09-09T12:02:37.630Z,22.90
2022-09-09T12:05:11.008Z,23.30
2022-09-09T12:07:37.940Z,23.40
2022-09-09T12:10:20.154Z,23.60
2022-09-09T12:12:47.382Z,23.70
2022-09-09T12:15:17.196Z,23.60
2022-09-09T12:17:51.394Z,23.50
2022-09-09T12:20:20.719Z,23.80
2022-09-09T12:22:52.800Z,24.40
2022-09-09T12:25:41.299Z,24.80
2022-09-09T12:28:19.076Z,25.10
2022-09-09T12:31:06.068Z,25.00
2022-09-09T12:33:44.018Z,24.70
2022-09-09T12:36:33.566Z,25.60
2022-09-09T12:39:16.157Z,26.40
2022-09-09T12:41:51.322Z,25.80
2022-09-09T12:44:17.998Z,25.40
2022-09-09T12:46:47.750Z,26.10
2022-09-09T12:49:36.518Z,26.40
2022-09-09T12:52:06.740Z,26.30
2022-09-09T12:54:37.257Z,25.60
2022-09-09T12:57:05.979Z,25.40
2022-09-09T12:59:40.156Z,26.20
2022-09-09T13:02:27.152Z,27.10
2022-09-09T13:04:55.210Z,28.10
2022-09-09T13:07:22.697Z,28.10
2022-09-09T13:09:50.197Z,28.50
2022-09-09T13:12:23.553Z,28.70
2022-09-09T13:14:54.343Z,27.90
2022-09-09T13:17:26.725Z,27.30
2022-09-09T13:19:54.334Z,27.20
2022-09-09T13:22:22.606Z,26.30
2022-09-09T13:25:03.948Z,25.80
2022-09-09T13:27:35.118Z,23.80
2022-09-09T13:30:02.979Z,23.30
2022-09-09T13:32:32.011Z,23.40
2022-09-09T13:35:00.693Z,23.30
2022-09-09T13:37:38.790Z,23.20
2022-09-09T13:40:07.659Z,23.90
2022-09-09T13:42:41.025Z,24.30
2022-09-09T13:45:17.055Z,24.70
2022-09-09T13:47:44.136Z,24.20
2022-09-09T13:50:21.969Z,23.20
2022-09-09T13:52:51.079Z,22.80
2022-09-09T13:55:18.239Z,22.80
2022-09-09T13:58:02.129Z,22.50
2022-09-09T14:00:35.282Z,22.60
2022-09-09T14:03:04.874Z,22.80
2022-09-09T14:05:33.551Z,23.20
2022-09-09T14:08:01.588Z,23.80
2022-09-09T14:10:28.469Z,25.10
2022-09-09T14:12:55.230Z,25.20
2022-09-09T14:15:22.903Z,25.40
2022-09-09T14:17:49.662Z,25.50
2022-09-09T14:20:18.481Z,25.30
2022-09-09T14:22:45.202Z,25.10
2022-09-09T14:25:14.430Z,24.30
2022-09-09T14:27:41.747Z,24.30
2022-09-09T14:30:09.181Z,24.80
2022-09-09T14:32:36.055Z,24.10
2022-09-09T14:35:02.900Z,24.00
2022-09-09T14:37:32.015Z,24.80
2022-09-09T14:39:59.226Z,26.10
2022-09-09T14:42:26.868Z,27.40
2022-09-09T14:44:53.585Z,28.20
2022-09-09T14:47:20.336Z,28.40
2022-09-09T14:49:47.493Z,28.80
2022-09-09T14:52:14.365Z,28.60
2022-09-09T14:54:41.147Z,28.70
2022-09-09T14:57:07.837Z,28.90
2022-09-09T14:59:35.363Z,29.20
2022-09-09T15:02:05.116Z,29.10
2022-09-09T15:04:31.996Z,29.10
2022-09-09T15:06:59.642Z,29.00
2022-09-09T15:09:26.490Z,28.10
2022-09-09T15:11:53.310Z,28.00
2022-09-09T15:14:22.514Z,28.40
2022-09-09T15:16:52.337Z,27.90
2022-09-09T15:19:19.056Z,26.50
2022-09-09T15:21:45.786Z,24.80
2022-09-09T15:24:14.571Z,23.80
2022-09-09T15:26:41.350Z,23.20
2022-09-09T15:29:09.034Z,22.80
2022-09-09T15:31:36.199Z,22.10
2022-09-09T15:34:06.008Z,21.80
2022-09-09T15:36:35.176Z,21.50
2022-09-09T15:39:03.807Z,21.30
2022-09-09T15:41:32.602Z,21.20
2022-09-09T15:44:00.136Z,21.10
2022-09-09T15:46:29.647Z,21.10
2022-09-09T15:48:58.795Z,21.10
2022-09-09T15:51:43.612Z,21.10
2022-09-09T15:54:13.515Z,21.10
2022-09-09T15:56:40.892Z,21.00
2022-09-09T15:59:07.790Z,21.00
2022-09-09T16:01:36.585Z,20.90
2022-09-09T16:04:03.516Z,20.80
2022-09-09T16:06:30.638Z,20.80
2022-09-09T16:08:59.284Z,20.80
2022-09-09T16:11:34.531Z,20.80
2022-09-09T16:14:01.366Z,20.80
2022-09-09T16:16:30.384Z,20.60
2022-09-09T16:19:03.850Z,20.70
2022-09-09T16:21:36.011Z,20.60
2022-09-09T16:24:04.413Z,20.60
2022-09-09T16:26:33.773Z,20.60
2022-09-09T16:29:02.205Z,20.50
2022-09-09T16:31:30.691Z,20.40
2022-09-09T16:33:57.672Z,20.40
2022-09-09T16:36:26.689Z,20.30
2022-09-09T16:38:55.938Z,20.30
2022-09-09T16:41:23.051Z,20.30
2022-09-09T16:43:54.864Z,20.10
2022-09-09T16:46:22.899Z,20.10
2022-09-09T16:48:50.242Z,20.00
2022-09-09T16:51:26.042Z,20.00
2022-09-09T16:53:54.344Z,20.00
2022-09-09T16:56:24.050Z,19.90
2022-09-09T16:58:58.989Z,19.80
2022-09-09T17:01:32.436Z,19.80
2022-09-09T17:04:04.368Z,19.70
2022-09-09T17:06:35.452Z,19.70
2022-09-09T17:09:05.042Z,19.60
2022-09-09T17:11:31.854Z,18.90
2022-09-09T17:13:59.300Z,18.30
2022-09-09T17:16:31.533Z,17.90
2022-09-09T17:18:59.573Z,17.10
2022-09-09T17:21:28.000Z,16.50
2022-09-09T17:23:57.189Z,15.60
2022-09-09T17:26:29.744Z,15.10
2022-09-09T17:28:59.823Z,15.10
2022-09-09T17:31:29.421Z,15.10
2022-09-09T17:33:56.913Z,14.80
2022-09-09T17:36:26.800Z,14.70
2022-09-09T17:38:53.858Z,14.90
2022-09-09T17:41:33.339Z,14.90
2022-09-09T17:44:00.676Z,14.80
2022-09-09T17:46:27.531Z,14.70
2022-09-09T17:48:58.198Z,14.60
2022-09-09T17:51:28.291Z,14.70
2022-09-09T17:53:56.805Z,14.80
2022-09-09T17:56:24.555Z,14.90
2022-09-09T17:58:52.003Z,14.80
2022-09-09T18:01:21.890Z,14.70
2022-09-09T18:03:49.955Z,14.70
2022-09-09T18:06:20.708Z,14.60
2022-09-09T18:08:52.719Z,14.60
2022-09-09T18:11:22.409Z,14.40
2022-09-09T18:13:55.572Z,14.40
2022-09-09T18:16:24.736Z,14.30
2022-09-09T18:18:52.600Z,14.10
2022-09-09T18:21:20.213Z,13.90
2022-09-09T18:23:52.223Z,13.80
2022-09-09T18:26:24.492Z,13.80
2022-09-09T18:28:54.032Z,13.80
2022-09-09T18:31:25.130Z,13.70
2022-09-09T18:33:53.498Z,13.60
2022-09-09T18:36:23.454Z,13.50
2022-09-09T18:38:51.086Z,13.40
2022-09-09T18:41:22.080Z,13.30
2022-09-09T18:43:50.950Z,13.30
2022-09-09T18:46:18.994Z,13.30
2022-09-09T18:48:47.262Z,13.30
2022-09-09T18:51:16.286Z,13.30
2022-09-09T18:53:43.033Z,13.30
2022-09-09T18:56:13.387Z,13.20
2022-09-09T18:58:40.589Z,13.20
2022-09-09T19:01:15.180Z,13.20
2022-09-09T19:03:42.063Z,13.30
2022-09-09T19:06:15.643Z,13.30
2022-09-09T19:08:44.717Z,13.30
2022-09-09T19:11:16.141Z,13.20
2022-09-09T19:13:43.718Z,13.00
2022-09-09T19:16:13.385Z,13.00
2022-09-09T19:18:41.552Z,12.90
2022-09-09T19:21:18.527Z,13.00
2022-09-09T19:23:56.466Z,13.00
2022-09-09T19:26:23.451Z,13.10
2022-09-09T19:28:51.686Z,13.00
2022-09-09T19:31:20.242Z,13.10
2022-09-09T19:33:47.953Z,13.10
2022-09-09T19:36:18.167Z,13.00
2022-09-09T19:38:47.545Z,13.00
2022-09-09T19:41:21.367Z,13.10
2022-09-09T19:43:48.330Z,13.10
2022-09-09T19:46:18.215Z,13.30
2022-09-09T19:48:46.681Z,13.20
2022-09-09T19:51:20.261Z,13.20
2022-09-09T19:53:51.206Z,13.10
2022-09-09T19:56:19.950Z,13.10
2022-09-09T19:58:48.303Z,13.10
2022-09-09T20:01:21.250Z,13.00
2022-09-09T20:03:51.317Z,13.00
2022-09-09T20:06:24.138Z,13.00
2022-09-09T20:08:51.050Z,12.90
2022-09-09T20:11:20.333Z,12.80
2022-09-09T20:13:48.968Z,12.80
2022-09-09T20:16:22.606Z,12.80
2022-09-09T20:18:52.562Z,12.80
2022-09-09T20:21:25.302Z,12.80
2022-09-09T20:23:52.876Z,12.80
2022-09-09T20:26:22.408Z,12.80
2022-09-09T20:28:50.610Z,12.80
2022-09-09T20:31:20.050Z,12.80
2022-09-09T20:33:47.697Z,13.10
2022-09-09T20:36:20.245Z,13.10
2022-09-09T20:38:53.093Z,13.10
2022-09-09T20:41:22.537Z,13.00
2022-09-09T20:43:54.138Z,13.00
2022-09-09T20:46:23.268Z,13.10
2022-09-09T20:48:51.349Z,13.00
2022-09-09T20:51:19.688Z,12.80
2022-09-09T20:53:47.432Z,12.80
2022-09-09T20:56:16.897Z,12.80
2022-09-09T20:58:43.846Z,12.80
2022-09-09T21:01:15.977Z,12.80
2022-09-09T21:03:42.794Z,12.80
2022-09-09T21:06:09.579Z,12.80
2022-09-09T21:08:36.807Z,12.70
2022-09-09T21:11:05.171Z,12.80
2022-09-09T21:13:34.039Z,12.80
2022-09-09T21:16:01.032Z,12.80
2022-09-09T21:18:29.187Z,12.90
2022-09-09T21:20:56.454Z,12.90
2022-09-09T21:23:24.170Z,12.80
2022-09-09T21:25:51.869Z,12.90
2022-09-09T21:28:18.580Z,12.90
2022-09-09T21:30:49.317Z,12.90
2022-09-09T21:33:17.678Z,13.00
2022-09-09T21:35:45.080Z,13.10
2022-09-09T21:38:17.841Z,13.10
2022-09-09T21:40:44.879Z,13.10
2022-09-09T21:43:14.092Z,13.10
2022-09-09T21:45:42.297Z,13.10
2022-09-09T21:48:12.963Z,13.20
2022-09-09T21:50:41.951Z,13.40
2022-09-09T21:53:10.083Z,13.50
2022-09-09T21:55:41.888Z,13.40
2022-09-09T21:58:11.833Z,13.40
2022-09-09T22:00:46.556Z,13.50
2022-09-09T22:03:15.493Z,13.50
2022-09-09T22:05:44.115Z,13.60
2022-09-09T22:08:13.918Z,13.40
2022-09-09T22:10:45.693Z,13.40
2022-09-09T22:13:16.310Z,13.40
2022-09-09T22:15:45.488Z,13.50
2022-09-09T22:18:14.049Z,13.40
2022-09-09T22:20:44.080Z,13.30
2022-09-09T22:23:12.441Z,13.30
2022-09-09T22:25:40.349Z,13.30
2022-09-09T22:28:09.142Z,13.30
2022-09-09T22:30:35.873Z,13.30
2022-09-09T22:33:02.640Z,13.30
2022-09-09T22:35:29.575Z,13.20
2022-09-09T22:37:57.156Z,13.30
2022-09-09T22:40:23.940Z,13.30
2022-09-09T22:42:52.884Z,13.30
2022-09-09T22:45:20.832Z,13.30
2022-09-09T22:47:47.739Z,13.20
2022-09-09T22:50:14.536Z,13.20
2022-09-09T22:52:41.315Z,13.20
2022-09-09T22:55:09.238Z,13.20
2022-09-09T22:57:37.281Z,13.30
2022-09-09T23:00:09.132Z,13.20
2022-09-09T23:02:40.803Z,13.10
2022-09-09T23:05:11.282Z,13.10
2022-09-09T23:07:38.207Z,13.20
2022-09-09T23:10:05.954Z,13.10
2022-09-09T23:12:34.015Z,13.10
2022-09-09T23:15:00.924Z,13.10
2022-09-09T23:17:27.833Z,13.10
2022-09-09T23:19:56.648Z,13.10
2022-09-09T23:22:24.262Z,13.10
2022-09-09T23:24:52.729Z,13.00
2022-09-09T23:27:21.249Z,13.00
2022-09-09T23:29:48.719Z,12.90
2022-09-09T23:32:15.806Z,12.90
2022-09-09T23:34:42.625Z,12.80
2022-09-09T23:37:11.175Z,12.80
2022-09-09T23:39:40.270Z,12.80
2022-09-09T23:42:08.034Z,12.80
2022-09-09T23:44:36.618Z,12.70
2022-09-09T23:47:05.583Z,12.70
2022-09-09T23:49:34.116Z,12.60
2022-09-09T23:52:05.245Z,12.60
2022-09-09T23:54:33.109Z,12.70
2022-09-09T23:57:02.292Z,12.60
2022-09-09T23:59:30.387Z,12.70
